| time (UTC) | temp F | wind direction | speed MPH | gust MPH | rain 1hr in | rain 24hr in | rain mn in | humidity % | barometer mb |
| 20260504202307 | 55 | 196 | 2.0 | 16.0 | 0.00 | 0.00 | 0.00 | 40 | 1012.8 |
| 20260504201806 | 55 | 194 | 1.0 | 14.0 | 0.00 | 0.00 | 0.00 | 39 | 1012.8 |
| 20260504201307 | 56 | 192 | 2.0 | 14.0 | 0.00 | 0.00 | 0.00 | 37 | 1012.8 |
| 20260504200806 | 56 | 185 | 2.0 | 14.0 | 0.00 | 0.00 | 0.00 | 35 | 1012.7 |
| 20260504200524 | 56 | 145 | 0.0 | 5.0 | 0.00 | 0.00 | 0.00 | 35 | 1012.7 |
| 20260504195801 | 56 | 246 | 0.0 | 0.0 | 0.00 | 0.00 | 0.00 | 33 | 1012.7 |
| 20260504195304 | 56 | 277 | 0.0 | 0.0 | 0.00 | 0.00 | 0.00 | 35 | 1012.6 |
| 20260504194803 | 55 | 292 | 0.0 | 1.0 | 0.00 | 0.00 | 0.00 | 35 | 1012.6 |
| 20260504194521 | 55 | 306 | 1.0 | 11.0 | 0.00 | 0.00 | 0.00 | 36 | 1012.7 |
| 20260504193759 | 55 | 300 | 3.0 | 16.0 | 0.00 | 0.00 | 0.00 | 37 | 1012.6 |
| 20260504193745 | 55 | 308 | 3.0 | 16.0 | 0.00 | 0.00 | 0.00 | 37 | 1012.6 |
| 20260504192758 | 55 | 355 | 3.0 | 22.0 | 0.00 | 0.00 | 0.00 | 36 | 1012.6 |
| 20260504192259 | 55 | 309 | 4.0 | 22.0 | 0.00 | 0.00 | 0.00 | 36 | 1012.6 |
| 20260504191758 | 55 | 302 | 4.0 | 19.0 | 0.00 | 0.00 | 0.00 | 35 | 1012.6 |
| 20260504191521 | 56 | 342 | 2.0 | 17.0 | 0.00 | 0.00 | 0.00 | 33 | 1012.6 |
| 20260504190759 | 56 | 302 | 2.0 | 15.0 | 0.00 | 0.00 | 0.00 | 34 | 1012.6 |
| 20260504190259 | 56 | 282 | 1.0 | 11.0 | 0.00 | 0.00 | 0.00 | 34 | 1012.6 |
| 20260504185759 | 56 | 293 | 2.0 | 14.0 | 0.00 | 0.00 | 0.00 | 34 | 1012.6 |
| 20260504185259 | 56 | 292 | 2.0 | 16.0 | 0.00 | 0.00 | 0.00 | 34 | 1012.6 |
| 20260504185020 | 56 | 272 | 1.0 | 16.0 | 0.00 | 0.00 | 0.00 | 33 | 1012.5 |
| 20260504184258 | 56 | 302 | 4.0 | 14.0 | 0.00 | 0.00 | 0.00 | 33 | 1012.5 |
| 20260504183758 | 57 | 283 | 4.0 | 16.0 | 0.00 | 0.00 | 0.00 | 33 | 1012.5 |
| 20260504183257 | 57 | 254 | 4.0 | 16.0 | 0.00 | 0.00 | 0.00 | 32 | 1012.4 |
| 20260504182758 | 58 | 274 | 3.0 | 13.0 | 0.00 | 0.00 | 0.00 | 32 | 1012.5 |
| 20260504182258 | 59 | 217 | 2.0 | 12.0 | 0.00 | 0.00 | 0.00 | 33 | 1012.4 |
| 20260504182240 | 59 | 189 | 2.0 | 13.0 | 0.00 | 0.00 | 0.00 | 33 | 1012.4 |
| 20260504181258 | 60 | 159 | 1.0 | 13.0 | 0.00 | 0.00 | 0.00 | 32 | 1012.2 |
| 20260504180757 | 61 | 205 | 1.0 | 11.0 | 0.00 | 0.00 | 0.00 | 28 | 1012.4 |
| 20260504180259 | 61 | 215 | 2.0 | 11.0 | 0.00 | 0.00 | 0.00 | 27 | 1012.2 |
| 20260504175759 | 62 | 173 | 1.0 | 9.0 | 0.00 | 0.00 | 0.00 | 27 | 1012.2 |
| 20260504175257 | 62 | 288 | 1.0 | 9.0 | 0.00 | 0.00 | 0.00 | 27 | 1012.2 |
| 20260504174757 | 62 | 198 | 2.0 | 10.0 | 0.00 | 0.00 | 0.00 | 28 | 1012.4 |
| 20260504174259 | 62 | 137 | 2.0 | 11.0 | 0.00 | 0.00 | 0.00 | 28 | 1012.4 |
| 20260504173758 | 62 | 204 | 1.0 | 11.0 | 0.00 | 0.00 | 0.00 | 27 | 1012.4 |
| 20260504173521 | 61 | 192 | 1.0 | 10.0 | 0.00 | 0.00 | 0.00 | 29 | 1012.5 |
| 20260504172759 | 60 | 178 | 1.0 | 10.0 | 0.00 | 0.00 | 0.00 | 29 | 1012.5 |
| 20260504172258 | 60 | 190 | 1.0 | 7.0 | 0.00 | 0.00 | 0.00 | 30 | 1012.6 |
| 20260504172005 | 60 | 238 | 0.0 | 7.0 | 0.00 | 0.00 | 0.00 | 31 | 1012.7 |
| 20260504171238 | 60 | 232 | 1.0 | 10.0 | 0.00 | 0.00 | 0.00 | 31 | 1012.8 |
| 20260504170739 | 59 | 251 | 2.0 | 10.0 | 0.00 | 0.00 | 0.00 | 31 | 1012.8 |
| 20260504170239 | 59 | 222 | 1.0 | 9.0 | 0.00 | 0.00 | 0.00 | 32 | 1013.0 |
| 20260504160446 | 56 | 181 | 1.0 | 11.0 | 0.00 | 0.00 | 0.00 | 40 | 1013.2 |
| 20260504151143 | 54 | 215 | 2.0 | 13.0 | 0.00 | 0.00 | 0.00 | 43 | 1013.7 |
| 20260504150645 | 54 | 213 | 2.0 | 11.0 | 0.00 | 0.00 | 0.00 | 43 | 1013.8 |
| 20260504150144 | 54 | 205 | 1.0 | 11.0 | 0.00 | 0.00 | 0.00 | 43 | 1013.8 |
| 20260504141127 | 49 | 204 | 1.0 | 15.0 | 0.00 | 0.00 | 0.00 | 52 | 1014.0 |
| 20260504141119 | 48 | 206 | 2.0 | 15.0 | 0.00 | 0.00 | 0.00 | 53 | 1013.8 |
| 20260504140127 | 48 | 218 | 3.0 | 14.0 | 0.00 | 0.00 | 0.00 | 53 | 1013.8 |
| 20260504130612 | 46 | 231 | 1.0 | 11.0 | 0.00 | 0.00 | 0.00 | 57 | 1014.1 |
| 20260504130556 | 46 | 232 | 1.0 | 11.0 | 0.00 | 0.00 | 0.00 | 56 | 1014.1 |
| 20260504120154 | 47 | 278 | 5.0 | 13.0 | 0.00 | 0.00 | 0.00 | 52 | 1013.6 |
| 20260504110543 | 47 | 254 | 1.0 | 9.0 | 0.00 | 0.00 | 0.00 | 44 | 1013.6 |
| 20260504081512 | 47 | 218 | 0.0 | 0.0 | 0.00 | 0.00 | 0.00 | 36 | 1013.5 |
| 20260504081012 | 47 | 218 | 0.0 | 0.0 | 0.00 | 0.00 | 0.00 | 35 | 1013.6 |
| 20260504080508 | 47 | 218 | 0.0 | 0.0 | 0.00 | 0.00 | 0.00 | 34 | 1013.6 |
| 20260504050411 | 50 | 227 | 0.0 | 0.0 | 0.00 | 0.00 | 0.00 | 31 | 1014.5 |
| 20260504045911 | 50 | 222 | 0.0 | 0.0 | 0.00 | 0.00 | 0.00 | 31 | 1014.6 |
| 20260504045411 | 51 | 216 | 0.0 | 0.0 | 0.00 | 0.00 | 0.00 | 31 | 1014.6 |
| 20260504044911 | 51 | 215 | 0.0 | 0.0 | 0.00 | 0.00 | 0.00 | 30 | 1014.6 |
| 20260504044412 | 51 | 217 | 0.0 | 0.0 | 0.00 | 0.00 | 0.00 | 30 | 1014.6 |
| 20260504044128 | 52 | 207 | 0.0 | 0.0 | 0.00 | 0.00 | 0.00 | 30 | 1014.6 |
| 20260504043356 | 52 | 207 | 0.0 | 0.0 | 0.00 | 0.00 | 0.00 | 30 | 1014.6 |
| 20260504042344 | 53 | 206 | 0.0 | 0.0 | 0.00 | 0.00 | 0.00 | 29 | 1014.7 |
| 20260504041831 | 53 | 205 | 0.0 | 0.0 | 0.00 | 0.00 | 0.00 | 29 | 1014.7 |
| 20260504041324 | 53 | 209 | 0.0 | 0.0 | 0.00 | 0.00 | 0.00 | 29 | 1014.7 |
| 20260504040818 | 53 | 202 | 0.0 | 1.0 | 0.00 | 0.00 | 0.00 | 29 | 1014.7 |
| 20260504040308 | 52 | 202 | 0.0 | 1.0 | 0.00 | 0.00 | 0.00 | 29 | 1014.8 |
| 20260504035802 | 52 | 208 | 0.0 | 0.0 | 0.00 | 0.00 | 0.00 | 29 | 1014.8 |
| 20260504035257 | 52 | 207 | 0.0 | 0.0 | 0.00 | 0.00 | 0.00 | 28 | 1014.8 |
| 20260504035008 | 52 | 201 | 0.0 | 0.0 | 0.00 | 0.00 | 0.00 | 28 | 1014.7 |
| 20260504034236 | 52 | 201 | 0.0 | 0.0 | 0.00 | 0.00 | 0.00 | 27 | 1014.7 |
| 20260504033730 | 52 | 201 | 0.0 | 0.0 | 0.00 | 0.00 | 0.00 | 27 | 1014.7 |
| 20260504033220 | 53 | 201 | 0.0 | 0.0 | 0.00 | 0.00 | 0.00 | 26 | 1014.7 |
| 20260504032714 | 53 | 211 | 0.0 | 0.0 | 0.00 | 0.00 | 0.00 | 26 | 1014.6 |
| 20260504032209 | 53 | 211 | 0.0 | 0.0 | 0.00 | 0.00 | 0.00 | 25 | 1014.6 |
| 20260504031653 | 54 | 211 | 0.0 | 0.0 | 0.00 | 0.00 | 0.00 | 25 | 1014.6 |
| 20260504031148 | 54 | 212 | 0.0 | 4.0 | 0.00 | 0.00 | 0.00 | 25 | 1014.6 |
| 20260504030908 | 54 | 210 | 0.0 | 4.0 | 0.00 | 0.00 | 0.00 | 24 | 1014.6 |
| 20260504030133 | 54 | 211 | 0.0 | 1.0 | 0.00 | 0.00 | 0.00 | 24 | 1014.6 |
| 20260504025851 | 54 | 211 | 0.0 | 0.0 | 0.00 | 0.00 | 0.00 | 24 | 1014.6 |
| 20260504025119 | 54 | 212 | 0.0 | 1.0 | 0.00 | 0.00 | 0.00 | 24 | 1014.6 |
| 20260504024828 | 54 | 212 | 0.0 | 1.0 | 0.00 | 0.00 | 0.00 | 24 | 1014.5 |
| 20260504024320 | 54 | 215 | 0.0 | 3.0 | 0.00 | 0.00 | 0.00 | 24 | 1014.5 |
| 20260504023554 | 55 | 215 | 0.0 | 3.0 | 0.00 | 0.00 | 0.00 | 23 | 1014.5 |
| 20260504023044 | 56 | 211 | 0.0 | 0.0 | 0.00 | 0.00 | 0.00 | 23 | 1014.5 |
| 20260504022538 | 56 | 211 | 0.0 | 0.0 | 0.00 | 0.00 | 0.00 | 23 | 1014.5 |
| 20260504022038 | 57 | 211 | 0.0 | 0.0 | 0.00 | 0.00 | 0.00 | 23 | 1014.5 |
| 20260504021539 | 57 | 211 | 0.0 | 0.0 | 0.00 | 0.00 | 0.00 | 22 | 1014.3 |
| 20260504021036 | 58 | 211 | 0.0 | 2.0 | 0.00 | 0.00 | 0.00 | 22 | 1014.3 |
| 20260504020536 | 58 | 211 | 0.0 | 3.0 | 0.00 | 0.00 | 0.00 | 22 | 1014.5 |
| 20260504020032 | 59 | 184 | 0.0 | 3.0 | 0.00 | 0.00 | 0.00 | 21 | 1014.5 |
| 20260504015532 | 59 | 181 | 0.0 | 0.0 | 0.00 | 0.00 | 0.00 | 21 | 1014.5 |
| 20260504015514 | 60 | 181 | 0.0 | 0.0 | 0.00 | 0.00 | 0.00 | 21 | 1014.5 |
| 20260504014526 | 60 | 181 | 0.0 | 0.0 | 0.00 | 0.00 | 0.00 | 21 | 1014.5 |
| 20260504014024 | 60 | 181 | 0.0 | 3.0 | 0.00 | 0.00 | 0.00 | 20 | 1014.5 |
| 20260504013525 | 60 | 166 | 0.0 | 3.0 | 0.00 | 0.00 | 0.00 | 20 | 1014.5 |
| 20260504013026 | 60 | 205 | 1.0 | 8.0 | 0.00 | 0.00 | 0.00 | 20 | 1014.5 |
| 20260504012523 | 60 | 189 | 1.0 | 8.0 | 0.00 | 0.00 | 0.00 | 20 | 1014.6 |
| 20260504012024 | 60 | 157 | 0.0 | 7.0 | 0.00 | 0.00 | 0.00 | 19 | 1014.5 |
| 20260504011523 | 61 | 182 | 1.0 | 7.0 | 0.00 | 0.00 | 0.00 | 19 | 1014.5 |
| 20260504011018 | 61 | 162 | 1.0 | 10.0 | 0.00 | 0.00 | 0.00 | 19 | 1014.6 |
| 20260504010511 | 61 | 157 | 0.0 | 10.0 | 0.00 | 0.00 | 0.00 | 19 | 1014.6 |
| 20260504010011 | 62 | 198 | 0.0 | 2.0 | 0.00 | 0.00 | 0.00 | 18 | 1014.6 |
| 20260504005511 | 62 | 217 | 0.0 | 1.0 | 0.00 | 0.00 | 0.00 | 16 | 1014.7 |
| 20260504005010 | 62 | 226 | 0.0 | 0.0 | 0.00 | 0.00 | 0.00 | 16 | 1014.6 |
| 20260504004509 | 63 | 211 | 0.0 | 3.0 | 0.00 | 0.00 | 0.00 | 15 | 1014.6 |
| 20260504004010 | 63 | 223 | 0.0 | 3.0 | 0.00 | 0.00 | 0.00 | 15 | 1014.7 |
| 20260504003510 | 63 | 171 | 0.0 | 3.0 | 0.00 | 0.00 | 0.00 | 16 | 1014.7 |
| 20260504003008 | 64 | 127 | 0.0 | 3.0 | 0.00 | 0.00 | 0.00 | 16 | 1014.7 |
| 20260504002505 | 64 | 159 | 0.0 | 4.0 | 0.00 | 0.00 | 0.00 | 16 | 1014.7 |
| 20260504002229 | 63 | 206 | 0.0 | 4.0 | 0.00 | 0.00 | 0.00 | 16 | 1014.7 |
| 20260504001506 | 63 | 120 | 1.0 | 5.0 | 0.00 | 0.00 | 0.00 | 15 | 1014.8 |
| 20260504001000 | 64 | 213 | 1.0 | 8.0 | 0.00 | 0.00 | 0.00 | 15 | 1014.8 |
| 20260504000502 | 64 | 210 | 1.0 | 8.0 | 0.00 | 0.00 | 0.00 | 15 | 1014.8 |
| 20260504000001 | 65 | 201 | 0.0 | 5.0 | 0.00 | 0.00 | 0.00 | 14 | 1014.7 |
| 20260503235500 | 65 | 247 | 0.0 | 6.0 | 0.00 | 0.00 | 0.00 | 14 | 1014.8 |
| 20260503235002 | 65 | 169 | 0.0 | 6.0 | 0.00 | 0.00 | 0.00 | 14 | 1014.8 |
| 20260503234500 | 64 | 236 | 1.0 | 5.0 | 0.00 | 0.00 | 0.00 | 14 | 1014.9 |
| 20260503234000 | 64 | 225 | 1.0 | 5.0 | 0.00 | 0.00 | 0.00 | 15 | 1014.9 |
| 20260503233502 | 64 | 213 | 0.0 | 9.0 | 0.00 | 0.00 | 0.00 | 15 | 1014.9 |
| 20260503232958 | 64 | 250 | 0.0 | 10.0 | 0.00 | 0.00 | 0.00 | 15 | 1014.9 |
| 20260503232458 | 65 | 228 | 1.0 | 10.0 | 0.00 | 0.00 | 0.00 | 15 | 1014.9 |
| 20260503231956 | 65 | 250 | 1.0 | 12.0 | 0.00 | 0.00 | 0.00 | 14 | 1014.9 |
| 20260503231718 | 65 | 220 | 1.0 | 12.0 | 0.00 | 0.00 | 0.00 | 14 | 1015.1 |
| 20260503230954 | 66 | 223 | 2.0 | 15.0 | 0.00 | 0.00 | 0.00 | 14 | 1014.9 |
| 20260503230455 | 65 | 230 | 3.0 | 15.0 | 0.00 | 0.00 | 0.00 | 14 | 1015.1 |
| 20260503225954 | 65 | 218 | 5.0 | 21.0 | 0.00 | 0.00 | 0.00 | 13 | 1015.1 |
| 20260503225455 | 65 | 238 | 4.0 | 21.0 | 0.00 | 0.00 | 0.00 | 14 | 1015.1 |
| 20260503225444 | 65 | 290 | 1.0 | 10.0 | 0.00 | 0.00 | 0.00 | 14 | 1015.1 |
| 20260503224443 | 64 | 295 | 1.0 | 11.0 | 0.00 | 0.00 | 0.00 | 14 | 1015.1 |
| 20260503223929 | 64 | 311 | 1.0 | 12.0 | 0.00 | 0.00 | 0.00 | 13 | 1015.1 |
| 20260503223423 | 64 | 225 | 2.0 | 12.0 | 0.00 | 0.00 | 0.00 | 13 | 1015.2 |
| 20260503222918 | 64 | 309 | 3.0 | 12.0 | 0.00 | 0.00 | 0.00 | 14 | 1015.2 |
| 20260503222408 | 64 | 208 | 2.0 | 17.0 | 0.00 | 0.00 | 0.00 | 13 | 1015.4 |
| 20260503222119 | 64 | 257 | 2.0 | 14.0 | 0.00 | 0.00 | 0.00 | 12 | 1015.4 |
| 20260503221356 | 64 | 227 | 3.0 | 14.0 | 0.00 | 0.00 | 0.00 | 12 | 1015.6 |
| 20260503220840 | 65 | 225 | 2.0 | 15.0 | 0.00 | 0.00 | 0.00 | 12 | 1015.7 |
| 20260503220555 | 64 | 207 | 2.0 | 15.0 | 0.00 | 0.00 | 0.00 | 12 | 1015.7 |
| 20260503215830 | 65 | 277 | 1.0 | 9.0 | 0.00 | 0.00 | 0.00 | 13 | 1015.8 |
| 20260503215319 | 64 | 267 | 2.0 | 14.0 | 0.00 | 0.00 | 0.00 | 14 | 1015.9 |
| 20260503214813 | 64 | 212 | 2.0 | 14.0 | 0.00 | 0.00 | 0.00 | 13 | 1015.9 |
| 20260503214538 | 64 | 232 | 0.0 | 11.0 | 0.00 | 0.00 | 0.00 | 14 | 1016.2 |
| 20260503213809 | 64 | 238 | 1.0 | 14.0 | 0.00 | 0.00 | 0.00 | 14 | 1016.2 |
| 20260503213309 | 64 | 292 | 3.0 | 16.0 | 0.00 | 0.00 | 0.00 | 13 | 1016.2 |
| 20260503212807 | 65 | 236 | 2.0 | 16.0 | 0.00 | 0.00 | 0.00 | 13 | 1016.3 |
| 20260503212306 | 65 | 257 | 2.0 | 14.0 | 0.00 | 0.00 | 0.00 | 13 | 1016.3 |
| 20260503211808 | 64 | 243 | 2.0 | 14.0 | 0.00 | 0.00 | 0.00 | 15 | 1016.4 |
| 20260503211305 | 64 | 273 | 2.0 | 14.0 | 0.00 | 0.00 | 0.00 | 15 | 1016.4 |
| 20260503210807 | 64 | 296 | 2.0 | 14.0 | 0.00 | 0.00 | 0.00 | 13 | 1016.4 |
| 20260503210304 | 64 | 259 | 2.0 | 14.0 | 0.00 | 0.00 | 0.00 | 14 | 1016.5 |
| 20260503205804 | 64 | 284 | 6.0 | 18.0 | 0.00 | 0.00 | 0.00 | 15 | 1016.5 |
| 20260503205304 | 64 | 235 | 9.0 | 18.0 | 0.00 | 0.00 | 0.00 | 15 | 1016.8 |
| 20260503204805 | 65 | 248 | 6.0 | 16.0 | 0.00 | 0.00 | 0.00 | 14 | 1016.7 |
| 20260503204305 | 64 | 284 | 4.0 | 17.0 | 0.00 | 0.00 | 0.00 | 14 | 1016.8 |
| 20260503203754 | 65 | 311 | 3.0 | 17.0 | 0.00 | 0.00 | 0.00 | 13 | 1016.9 |
| 20260503203248 | 65 | 244 | 5.0 | 15.0 | 0.00 | 0.00 | 0.00 | 15 | 1016.9 |
| 20260503202743 | 65 | 190 | 6.0 | 15.0 | 0.00 | 0.00 | 0.00 | 14 | 1016.9 |